sensor_id;sensor_type;location;lat;lon;timestamp;pressure;altitude;pressure_sealevel;temperature;humidity
76086;BME280;64791;0.000;0.000;2023-05-16T00:01:55;93538.63;;;11.02;78.84
76086;BME280;64791;0.000;0.000;2023-05-16T00:04:21;93541.38;;;11.02;79.21
76086;BME280;64791;0.000;0.000;2023-05-16T00:06:48;93539.91;;;11.01;79.17
76086;BME280;64791;0.000;0.000;2023-05-16T00:09:13;93534.16;;;11.07;80.33
76086;BME280;64791;0.000;0.000;2023-05-16T00:11:39;93533.97;;;11.12;78.04
76086;BME280;64791;0.000;0.000;2023-05-16T00:14:05;93533.19;;;11.19;78.25
76086;BME280;64791;0.000;0.000;2023-05-16T00:16:40;93528.19;;;11.25;77.84
76086;BME280;64791;0.000;0.000;2023-05-16T00:19:06;93534.06;;;11.29;77.79
76086;BME280;64791;0.000;0.000;2023-05-16T00:21:32;93536.97;;;11.31;78.11
76086;BME280;64791;0.000;0.000;2023-05-16T00:23:58;93530.72;;;11.31;78.07
76086;BME280;64791;0.000;0.000;2023-05-16T00:26:24;93529.09;;;11.28;78.67
76086;BME280;64791;0.000;0.000;2023-05-16T00:28:50;93522.28;;;11.29;77.84
76086;BME280;64791;0.000;0.000;2023-05-16T00:31:16;93527.78;;;11.29;78.00
76086;BME280;64791;0.000;0.000;2023-05-16T00:33:42;93528.94;;;11.26;77.79
76086;BME280;64791;0.000;0.000;2023-05-16T00:36:08;93520.66;;;11.26;77.60
76086;BME280;64791;0.000;0.000;2023-05-16T00:38:34;93520.69;;;11.18;78.38
76086;BME280;64791;0.000;0.000;2023-05-16T00:41:00;93523.84;;;11.15;78.71
76086;BME280;64791;0.000;0.000;2023-05-16T00:43:25;93524.38;;;11.13;78.54
76086;BME280;64791;0.000;0.000;2023-05-16T00:45:51;93514.06;;;11.14;78.46
76086;BME280;64791;0.000;0.000;2023-05-16T00:48:17;93511.31;;;11.14;78.06
76086;BME280;64791;0.000;0.000;2023-05-16T00:50:43;93509.13;;;11.12;78.30
76086;BME280;64791;0.000;0.000;2023-05-16T00:53:09;93508.03;;;11.08;78.79
76086;BME280;64791;0.000;0.000;2023-05-16T00:55:35;93496.50;;;11.02;78.83
76086;BME280;64791;0.000;0.000;2023-05-16T00:58:01;93486.91;;;11.03;78.98
76086;BME280;64791;0.000;0.000;2023-05-16T01:00:28;93494.84;;;10.99;79.02
76086;BME280;64791;0.000;0.000;2023-05-16T01:02:54;93492.44;;;11.03;79.38
76086;BME280;64791;0.000;0.000;2023-05-16T01:05:20;93491.09;;;11.11;79.47
76086;BME280;64791;0.000;0.000;2023-05-16T01:07:46;93493.50;;;11.07;79.04
76086;BME280;64791;0.000;0.000;2023-05-16T01:10:12;93494.09;;;10.98;79.29
76086;BME280;64791;0.000;0.000;2023-05-16T01:12:47;93504.09;;;10.94;79.38
76086;BME280;64791;0.000;0.000;2023-05-16T01:15:29;93494.38;;;10.85;79.05
76086;BME280;64791;0.000;0.000;2023-05-16T01:18:14;93493.84;;;10.79;80.00
76086;BME280;64791;0.000;0.000;2023-05-16T01:20:46;93486.13;;;10.78;80.27
76086;BME280;64791;0.000;0.000;2023-05-16T01:28:29;93491.47;;;10.76;79.53
76086;BME280;64791;0.000;0.000;2023-05-16T01:30:55;93487.81;;;10.73;79.93
76086;BME280;64791;0.000;0.000;2023-05-16T01:33:21;93481.56;;;10.65;80.68
76086;BME280;64791;0.000;0.000;2023-05-16T01:36:05;93477.34;;;10.64;79.77
76086;BME280;64791;0.000;0.000;2023-05-16T01:38:35;93469.63;;;10.70;80.01
76086;BME280;64791;0.000;0.000;2023-05-16T01:41:27;93464.47;;;10.67;79.95
76086;BME280;64791;0.000;0.000;2023-05-16T01:43:55;93460.97;;;10.66;80.05
76086;BME280;64791;0.000;0.000;2023-05-16T01:46:24;93454.22;;;10.60;79.91
76086;BME280;64791;0.000;0.000;2023-05-16T01:48:52;93454.22;;;10.60;79.79
76086;BME280;64791;0.000;0.000;2023-05-16T01:51:21;93444.28;;;10.56;80.16
76086;BME280;64791;0.000;0.000;2023-05-16T01:53:47;93431.94;;;10.57;80.20
76086;BME280;64791;0.000;0.000;2023-05-16T01:56:14;93438.22;;;10.58;80.15
76086;BME280;64791;0.000;0.000;2023-05-16T01:58:41;93429.00;;;10.63;79.24
76086;BME280;64791;0.000;0.000;2023-05-16T02:01:07;93418.88;;;10.66;80.34
76086;BME280;64791;0.000;0.000;2023-05-16T02:03:33;93413.38;;;10.66;80.13
76086;BME280;64791;0.000;0.000;2023-05-16T02:05:59;93418.50;;;10.69;79.91
76086;BME280;64791;0.000;0.000;2023-05-16T02:08:25;93407.66;;;10.71;80.32
76086;BME280;64791;0.000;0.000;2023-05-16T02:10:52;93420.00;;;10.70;80.30
76086;BME280;64791;0.000;0.000;2023-05-16T02:13:17;93418.69;;;10.71;80.27
76086;BME280;64791;0.000;0.000;2023-05-16T02:15:44;93415.34;;;10.73;80.30
76086;BME280;64791;0.000;0.000;2023-05-16T02:18:10;93410.00;;;10.75;79.23
76086;BME280;64791;0.000;0.000;2023-05-16T02:20:36;93408.91;;;10.78;79.97
76086;BME280;64791;0.000;0.000;2023-05-16T02:23:02;93410.38;;;10.79;79.69
76086;BME280;64791;0.000;0.000;2023-05-16T02:25:28;93411.25;;;10.81;79.50
76086;BME280;64791;0.000;0.000;2023-05-16T02:27:54;93411.06;;;10.87;79.93
76086;BME280;64791;0.000;0.000;2023-05-16T02:30:20;93402.78;;;10.87;79.40
76086;BME280;64791;0.000;0.000;2023-05-16T02:32:46;93410.31;;;10.86;78.72
76086;BME280;64791;0.000;0.000;2023-05-16T02:35:13;93416.56;;;10.87;79.73
76086;BME280;64791;0.000;0.000;2023-05-16T02:37:39;93418.03;;;10.88;78.68
76086;BME280;64791;0.000;0.000;2023-05-16T02:40:05;93424.09;;;10.86;80.00
76086;BME280;64791;0.000;0.000;2023-05-16T02:42:31;93422.25;;;10.89;78.94
76086;BME280;64791;0.000;0.000;2023-05-16T02:44:57;93415.44;;;10.90;79.28
76086;BME280;64791;0.000;0.000;2023-05-16T02:47:23;93419.50;;;10.89;78.79
76086;BME280;64791;0.000;0.000;2023-05-16T02:49:48;93413.41;;;10.90;79.31
76086;BME280;64791;0.000;0.000;2023-05-16T02:52:14;93414.16;;;10.91;79.20
76086;BME280;64791;0.000;0.000;2023-05-16T02:54:40;93407.16;;;10.90;79.28
76086;BME280;64791;0.000;0.000;2023-05-16T02:57:05;93415.44;;;10.90;79.46
76086;BME280;64791;0.000;0.000;2023-05-16T02:59:31;93406.63;;;10.91;78.88
76086;BME280;64791;0.000;0.000;2023-05-16T03:01:56;93413.25;;;10.88;79.50
76086;BME280;64791;0.000;0.000;2023-05-16T03:04:22;93400.19;;;10.89;79.26
76086;BME280;64791;0.000;0.000;2023-05-16T03:06:48;93401.84;;;10.92;79.11
76086;BME280;64791;0.000;0.000;2023-05-16T03:09:15;93410.13;;;10.92;78.90
76086;BME280;64791;0.000;0.000;2023-05-16T03:11:41;93406.22;;;10.95;79.37
76086;BME280;64791;0.000;0.000;2023-05-16T03:14:07;93401.25;;;10.93;79.40
76086;BME280;64791;0.000;0.000;2023-05-16T03:16:33;93406.78;;;10.93;79.85
76086;BME280;64791;0.000;0.000;2023-05-16T03:19:01;93406.44;;;10.89;78.76
76086;BME280;64791;0.000;0.000;2023-05-16T03:21:27;93398.72;;;10.88;80.48
76086;BME280;64791;0.000;0.000;2023-05-16T03:23:53;93404.81;;;10.86;80.55
76086;BME280;64791;0.000;0.000;2023-05-16T03:26:19;93409.75;;;10.88;80.05
76086;BME280;64791;0.000;0.000;2023-05-16T03:28:48;93407.91;;;10.90;79.50
76086;BME280;64791;0.000;0.000;2023-05-16T03:31:14;93412.47;;;10.95;78.86
76086;BME280;64791;0.000;0.000;2023-05-16T03:33:40;93418.50;;;11.01;78.96
76086;BME280;64791;0.000;0.000;2023-05-16T03:36:06;93417.22;;;11.02;79.65
76086;BME280;64791;0.000;0.000;2023-05-16T03:38:31;93422.72;;;11.02;78.90
76086;BME280;64791;0.000;0.000;2023-05-16T03:40:57;93418.50;;;11.01;79.98
76086;BME280;64791;0.000;0.000;2023-05-16T03:43:23;93411.69;;;11.02;78.94
76086;BME280;64791;0.000;0.000;2023-05-16T03:45:49;93400.25;;;11.06;78.94
76086;BME280;64791;0.000;0.000;2023-05-16T03:48:14;93409.44;;;11.08;79.23
76086;BME280;64791;0.000;0.000;2023-05-16T03:50:40;93404.66;;;11.09;79.59
76086;BME280;64791;0.000;0.000;2023-05-16T03:53:06;93398.41;;;11.08;79.52
76086;BME280;64791;0.000;0.000;2023-05-16T03:55:32;93396.94;;;11.07;79.42
76086;BME280;64791;0.000;0.000;2023-05-16T03:57:57;93392.25;;;11.17;79.65
76086;BME280;64791;0.000;0.000;2023-05-16T04:00:23;93402.72;;;11.19;79.55
76086;BME280;64791;0.000;0.000;2023-05-16T04:02:49;93394.63;;;11.21;78.69
76086;BME280;64791;0.000;0.000;2023-05-16T04:05:14;93410.78;;;11.24;78.66
76086;BME280;64791;0.000;0.000;2023-05-16T04:07:40;93413.31;;;11.30;78.71
76086;BME280;64791;0.000;0.000;2023-05-16T04:10:06;93407.81;;;11.30;79.14
76086;BME280;64791;0.000;0.000;2023-05-16T04:12:32;93404.88;;;11.28;78.65
76086;BME280;64791;0.000;0.000;2023-05-16T04:14:58;93409.66;;;11.27;78.87
76086;BME280;64791;0.000;0.000;2023-05-16T04:17:23;93417.94;;;11.27;80.06
76086;BME280;64791;0.000;0.000;2023-05-16T04:19:49;93421.44;;;11.28;79.52
76086;BME280;64791;0.000;0.000;2023-05-16T04:22:15;93428.03;;;11.32;80.06
76086;BME280;64791;0.000;0.000;2023-05-16T04:24:41;93430.56;;;11.38;79.98
76086;BME280;64791;0.000;0.000;2023-05-16T04:27:07;93427.88;;;11.48;79.56
76086;BME280;64791;0.000;0.000;2023-05-16T04:29:33;93416.28;;;11.49;79.17
76086;BME280;64791;0.000;0.000;2023-05-16T04:31:59;93408.84;;;11.59;78.05
76086;BME280;64791;0.000;0.000;2023-05-16T04:34:25;93417.06;;;11.67;79.00
76086;BME280;64791;0.000;0.000;2023-05-16T04:36:55;93409.25;;;11.73;78.01
76086;BME280;64791;0.000;0.000;2023-05-16T04:39:21;93412.50;;;11.79;78.02
76086;BME280;64791;0.000;0.000;2023-05-16T04:41:47;93416.34;;;11.83;77.70
76086;BME280;64791;0.000;0.000;2023-05-16T04:44:13;93416.66;;;11.87;78.02
76086;BME280;64791;0.000;0.000;2023-05-16T04:46:38;93401.00;;;11.90;78.49
76086;BME280;64791;0.000;0.000;2023-05-16T04:49:04;93407.97;;;11.91;78.53
76086;BME280;64791;0.000;0.000;2023-05-16T04:51:30;93401.16;;;11.92;78.49
76086;BME280;64791;0.000;0.000;2023-05-16T04:53:58;93402.94;;;11.97;78.26
76086;BME280;64791;0.000;0.000;2023-05-16T04:56:24;93408.47;;;11.97;78.09
76086;BME280;64791;0.000;0.000;2023-05-16T04:58:51;93403.09;;;11.99;78.40
76086;BME280;64791;0.000;0.000;2023-05-16T05:01:17;93401.75;;;12.07;78.10
76086;BME280;64791;0.000;0.000;2023-05-16T05:03:42;93408.09;;;12.18;77.68
76086;BME280;64791;0.000;0.000;2023-05-16T05:06:08;93398.25;;;12.24;77.36
76086;BME280;64791;0.000;0.000;2023-05-16T05:08:35;93402.97;;;12.31;77.14
76086;BME280;64791;0.000;0.000;2023-05-16T05:11:01;93400.19;;;12.31;77.29
76086;BME280;64791;0.000;0.000;2023-05-16T05:13:27;93392.09;;;12.43;77.02
76086;BME280;64791;0.000;0.000;2023-05-16T05:15:52;93396.19;;;12.42;77.51
76086;BME280;64791;0.000;0.000;2023-05-16T05:18:18;93393.56;;;12.44;77.00
76086;BME280;64791;0.000;0.000;2023-05-16T05:20:44;93395.91;;;12.47;76.90
76086;BME280;64791;0.000;0.000;2023-05-16T05:23:10;93401.28;;;12.45;76.76
76086;BME280;64791;0.000;0.000;2023-05-16T05:25:36;93415.88;;;12.46;76.60
76086;BME280;64791;0.000;0.000;2023-05-16T05:28:01;93417.53;;;12.58;76.01
76086;BME280;64791;0.000;0.000;2023-05-16T05:30:28;93418.38;;;12.51;76.03
76086;BME280;64791;0.000;0.000;2023-05-16T05:32:54;93408.63;;;12.50;76.20
76086;BME280;64791;0.000;0.000;2023-05-16T05:35:19;93409.16;;;12.49;76.25
76086;BME280;64791;0.000;0.000;2023-05-16T05:37:45;93400.31;;;12.50;76.43
76086;BME280;64791;0.000;0.000;2023-05-16T05:40:11;93398.59;;;12.55;76.57
76086;BME280;64791;0.000;0.000;2023-05-16T05:42:37;93399.47;;;12.57;76.37
76086;BME280;64791;0.000;0.000;2023-05-16T05:45:03;93399.06;;;12.61;76.63
76086;BME280;64791;0.000;0.000;2023-05-16T05:47:29;93410.88;;;12.61;76.08
76086;BME280;64791;0.000;0.000;2023-05-16T05:49:56;93408.81;;;12.62;76.35
76086;BME280;64791;0.000;0.000;2023-05-16T05:52:21;93403.59;;;12.66;76.48
76086;BME280;64791;0.000;0.000;2023-05-16T05:54:47;93397.34;;;12.65;76.33
76086;BME280;64791;0.000;0.000;2023-05-16T05:57:13;93384.06;;;12.64;76.70
76086;BME280;64791;0.000;0.000;2023-05-16T05:59:39;93384.22;;;12.66;76.67
76086;BME280;64791;0.000;0.000;2023-05-16T06:02:05;93382.38;;;12.68;76.20
76086;BME280;64791;0.000;0.000;2023-05-16T06:04:31;93382.19;;;12.66;76.46
76086;BME280;64791;0.000;0.000;2023-05-16T06:06:57;93386.59;;;12.69;76.11
76086;BME280;64791;0.000;0.000;2023-05-16T06:09:23;93386.91;;;12.73;76.76
76086;BME280;64791;0.000;0.000;2023-05-16T06:11:49;93384.59;;;12.79;75.89
76086;BME280;64791;0.000;0.000;2023-05-16T06:14:15;93382.44;;;12.78;76.67
76086;BME280;64791;0.000;0.000;2023-05-16T06:16:41;93402.53;;;12.78;76.48
76086;BME280;64791;0.000;0.000;2023-05-16T06:19:07;93408.22;;;12.80;76.60
76086;BME280;64791;0.000;0.000;2023-05-16T06:21:33;93394.31;;;12.71;77.36
76086;BME280;64791;0.000;0.000;2023-05-16T06:23:58;93393.59;;;12.70;77.86
76086;BME280;64791;0.000;0.000;2023-05-16T06:26:24;93394.47;;;12.73;77.72
76086;BME280;64791;0.000;0.000;2023-05-16T06:28:50;93375.84;;;12.73;78.18
76086;BME280;64791;0.000;0.000;2023-05-16T06:31:16;93381.25;;;12.81;77.15
76086;BME280;64791;0.000;0.000;2023-05-16T06:33:41;93386.41;;;12.84;77.15
76086;BME280;64791;0.000;0.000;2023-05-16T06:36:07;93384.66;;;12.89;77.09
76086;BME280;64791;0.000;0.000;2023-05-16T06:38:33;93371.91;;;13.03;76.21
76086;BME280;64791;0.000;0.000;2023-05-16T06:40:59;93378.94;;;13.14;74.70
76086;BME280;64791;0.000;0.000;2023-05-16T06:43:25;93368.00;;;13.42;73.88
76086;BME280;64791;0.000;0.000;2023-05-16T06:45:50;93364.84;;;13.75;72.60
76086;BME280;64791;0.000;0.000;2023-05-16T06:48:16;93349.66;;;13.66;72.83
76086;BME280;64791;0.000;0.000;2023-05-16T06:50:46;93340.91;;;13.70;72.71
76086;BME280;64791;0.000;0.000;2023-05-16T06:53:12;93357.38;;;13.68;72.15
76086;BME280;64791;0.000;0.000;2023-05-16T06:55:37;93358.41;;;13.72;72.01
76086;BME280;64791;0.000;0.000;2023-05-16T06:58:03;93365.56;;;13.75;71.95
76086;BME280;64791;0.000;0.000;2023-05-16T07:00:29;93340.78;;;13.77;71.87
76086;BME280;64791;0.000;0.000;2023-05-16T07:02:55;93314.38;;;13.76;71.54
76086;BME280;64791;0.000;0.000;2023-05-16T07:05:20;93319.16;;;13.76;71.42
76086;BME280;64791;0.000;0.000;2023-05-16T07:07:46;93328.94;;;13.86;71.28
76086;BME280;64791;0.000;0.000;2023-05-16T07:10:13;93341.06;;;13.91;71.45
76086;BME280;64791;0.000;0.000;2023-05-16T07:12:40;93338.56;;;13.95;70.98
76086;BME280;64791;0.000;0.000;2023-05-16T07:15:07;93331.00;;;13.95;71.25
76086;BME280;64791;0.000;0.000;2023-05-16T07:17:33;93332.59;;;14.08;71.05
76086;BME280;64791;0.000;0.000;2023-05-16T07:19:58;93328.06;;;14.31;70.04
76086;BME280;64791;0.000;0.000;2023-05-16T07:22:24;93320.75;;;14.36;70.09
76086;BME280;64791;0.000;0.000;2023-05-16T07:24:50;93322.50;;;14.41;70.30
76086;BME280;64791;0.000;0.000;2023-05-16T07:27:18;93317.97;;;14.55;69.90
76086;BME280;64791;0.000;0.000;2023-05-16T07:29:44;93303.19;;;14.62;69.93
76086;BME280;64791;0.000;0.000;2023-05-16T07:32:10;93307.78;;;14.88;68.50
76086;BME280;64791;0.000;0.000;2023-05-16T07:34:36;93304.28;;;14.88;67.96
76086;BME280;64791;0.000;0.000;2023-05-16T07:37:02;93314.63;;;14.97;67.43
76086;BME280;64791;0.000;0.000;2023-05-16T07:39:27;93325.66;;;15.06;67.46
76086;BME280;64791;0.000;0.000;2023-05-16T07:41:53;93329.03;;;15.15;67.09
76086;BME280;64791;0.000;0.000;2023-05-16T07:44:19;93326.38;;;15.17;67.05
76086;BME280;64791;0.000;0.000;2023-05-16T07:46:45;93313.53;;;15.11;67.58
76086;BME280;64791;0.000;0.000;2023-05-16T07:49:11;93318.25;;;15.30;66.39
76086;BME280;64791;0.000;0.000;2023-05-16T07:51:36;93321.91;;;15.33;66.35
76086;BME280;64791;0.000;0.000;2023-05-16T07:54:02;93327.59;;;15.35;66.12
76086;BME280;64791;0.000;0.000;2023-05-16T07:56:28;93327.25;;;15.50;65.92
76086;BME280;64791;0.000;0.000;2023-05-16T07:58:54;93318.66;;;15.67;64.88
76086;BME280;64791;0.000;0.000;2023-05-16T08:01:20;93310.00;;;15.42;65.50
76086;BME280;64791;0.000;0.000;2023-05-16T08:03:45;93305.44;;;15.46;65.51
76086;BME280;64791;0.000;0.000;2023-05-16T08:06:11;93287.16;;;15.53;65.08
76086;BME280;64791;0.000;0.000;2023-05-16T08:08:37;93272.19;;;15.58;65.45
76086;BME280;64791;0.000;0.000;2023-05-16T08:11:03;93262.47;;;15.68;64.97
76086;BME280;64791;0.000;0.000;2023-05-16T08:13:29;93264.34;;;15.87;64.38
76086;BME280;64791;0.000;0.000;2023-05-16T08:15:56;93261.69;;;15.89;64.09
76086;BME280;64791;0.000;0.000;2023-05-16T08:18:21;93270.47;;;16.07;63.97
76086;BME280;64791;0.000;0.000;2023-05-16T08:20:47;93280.56;;;16.23;63.11
76086;BME280;64791;0.000;0.000;2023-05-16T08:23:13;93288.66;;;16.19;62.67
76086;BME280;64791;0.000;0.000;2023-05-16T08:25:39;93275.25;;;16.27;62.61
76086;BME280;64791;0.000;0.000;2023-05-16T08:28:04;93283.97;;;16.33;61.99
76086;BME280;64791;0.000;0.000;2023-05-16T08:30:30;93299.25;;;16.32;62.06
76086;BME280;64791;0.000;0.000;2023-05-16T08:32:56;93277.97;;;16.37;61.94
76086;BME280;64791;0.000;0.000;2023-05-16T08:35:22;93290.59;;;16.17;61.93
76086;BME280;64791;0.000;0.000;2023-05-16T08:37:48;93285.25;;;16.09;62.68
76086;BME280;64791;0.000;0.000;2023-05-16T08:40:14;93285.97;;;16.10;62.45
76086;BME280;64791;0.000;0.000;2023-05-16T08:42:40;93268.22;;;16.15;62.78
76086;BME280;64791;0.000;0.000;2023-05-16T08:45:06;93293.69;;;16.32;61.73
76086;BME280;64791;0.000;0.000;2023-05-16T08:47:32;93306.34;;;16.24;62.33
76086;BME280;64791;0.000;0.000;2023-05-16T08:50:03;93298.94;;;16.17;63.15
76086;BME280;64791;0.000;0.000;2023-05-16T08:52:30;93296.59;;;16.46;61.91
76086;BME280;64791;0.000;0.000;2023-05-16T08:55:01;93299.81;;;16.63;61.79
76086;BME280;64791;0.000;0.000;2023-05-16T08:57:30;93278.31;;;16.76;61.13
76086;BME280;64791;0.000;0.000;2023-05-16T08:59:56;93283.38;;;17.25;59.97
76086;BME280;64791;0.000;0.000;2023-05-16T09:02:22;93280.38;;;17.21;60.04
76086;BME280;64791;0.000;0.000;2023-05-16T09:04:48;93278.06;;;17.18;60.85
76086;BME280;64791;0.000;0.000;2023-05-16T09:07:14;93273.59;;;17.36;59.55
76086;BME280;64791;0.000;0.000;2023-05-16T09:09:41;93281.94;;;17.48;59.48
76086;BME280;64791;0.000;0.000;2023-05-16T09:12:07;93279.91;;;17.48;60.05
76086;BME280;64791;0.000;0.000;2023-05-16T09:14:33;93275.56;;;17.82;58.80
76086;BME280;64791;0.000;0.000;2023-05-16T09:17:07;93273.31;;;18.03;58.65
76086;BME280;64791;0.000;0.000;2023-05-16T09:19:37;93270.94;;;17.86;58.69
76086;BME280;64791;0.000;0.000;2023-05-16T09:22:03;93272.59;;;18.03;58.67
76086;BME280;64791;0.000;0.000;2023-05-16T09:24:29;93271.50;;;17.96;59.23
76086;BME280;64791;0.000;0.000;2023-05-16T09:26:55;93274.28;;;17.36;58.78
76086;BME280;64791;0.000;0.000;2023-05-16T09:29:21;93266.31;;;17.54;59.68
76086;BME280;64791;0.000;0.000;2023-05-16T09:31:48;93279.16;;;17.36;60.39
76086;BME280;64791;0.000;0.000;2023-05-16T09:34:14;93281.81;;;17.34;60.13
76086;BME280;64791;0.000;0.000;2023-05-16T09:36:40;93287.25;;;17.32;60.24
76086;BME280;64791;0.000;0.000;2023-05-16T09:39:06;93282.56;;;17.46;59.88
76086;BME280;64791;0.000;0.000;2023-05-16T09:41:32;93287.63;;;17.61;59.31
76086;BME280;64791;0.000;0.000;2023-05-16T09:44:02;93271.88;;;17.54;59.76
76086;BME280;64791;0.000;0.000;2023-05-16T09:46:28;93285.69;;;17.64;59.95
76086;BME280;64791;0.000;0.000;2023-05-16T09:48:54;93288.78;;;17.81;59.71
76086;BME280;64791;0.000;0.000;2023-05-16T09:51:21;93281.97;;;17.96;58.98
76086;BME280;64791;0.000;0.000;2023-05-16T09:53:47;93271.59;;;18.10;58.33
76086;BME280;64791;0.000;0.000;2023-05-16T09:56:13;93271.03;;;18.25;57.72
76086;BME280;64791;0.000;0.000;2023-05-16T09:58:39;93275.31;;;18.26;57.25
76086;BME280;64791;0.000;0.000;2023-05-16T10:01:06;93274.47;;;18.24;57.61
76086;BME280;64791;0.000;0.000;2023-05-16T10:03:36;93267.97;;;18.07;58.11
76086;BME280;64791;0.000;0.000;2023-05-16T10:06:02;93276.19;;;18.17;56.76
76086;BME280;64791;0.000;0.000;2023-05-16T10:08:29;93270.81;;;18.21;57.08
76086;BME280;64791;0.000;0.000;2023-05-16T10:10:57;93281.81;;;18.31;57.67
76086;BME280;64791;0.000;0.000;2023-05-16T10:13:27;93292.50;;;18.59;56.19
76086;BME280;64791;0.000;0.000;2023-05-16T10:15:54;93291.66;;;18.82;56.08
76086;BME280;64791;0.000;0.000;2023-05-16T10:18:20;93268.19;;;19.01;55.32
76086;BME280;64791;0.000;0.000;2023-05-16T10:20:47;93257.41;;;18.81;56.06
76086;BME280;64791;0.000;0.000;2023-05-16T10:23:15;93255.63;;;18.74;56.51
76086;BME280;64791;0.000;0.000;2023-05-16T10:25:41;93254.59;;;18.81;56.60
76086;BME280;64791;0.000;0.000;2023-05-16T10:28:09;93258.66;;;18.92;56.12
76086;BME280;64791;0.000;0.000;2023-05-16T10:30:35;93228.84;;;19.10;55.80
76086;BME280;64791;0.000;0.000;2023-05-16T10:33:01;93227.09;;;19.57;55.09
76086;BME280;64791;0.000;0.000;2023-05-16T10:35:29;93221.66;;;19.89;54.48
76086;BME280;64791;0.000;0.000;2023-05-16T10:37:55;93211.75;;;20.15;53.63
76086;BME280;64791;0.000;0.000;2023-05-16T10:40:22;93200.50;;;20.44;52.35
76086;BME280;64791;0.000;0.000;2023-05-16T10:43:02;93209.31;;;20.68;52.43
76086;BME280;64791;0.000;0.000;2023-05-16T10:45:28;93207.53;;;21.05;50.33
76086;BME280;64791;0.000;0.000;2023-05-16T10:47:58;93204.91;;;21.09;50.49
76086;BME280;64791;0.000;0.000;2023-05-16T10:50:34;93208.78;;;21.18;50.79
76086;BME280;64791;0.000;0.000;2023-05-16T11:01:18;93210.91;;;21.51;48.97
76086;BME280;64791;0.000;0.000;2023-05-16T11:07:01;93208.00;;;21.64;48.21
76086;BME280;64791;0.000;0.000;2023-05-16T11:09:21;93220.53;;;21.46;48.33
76086;BME280;64791;0.000;0.000;2023-05-16T11:14:26;93221.75;;;21.58;49.49
76086;BME280;64791;0.000;0.000;2023-05-16T11:19:38;93230.53;;;21.51;48.98
76086;BME280;64791;0.000;0.000;2023-05-16T11:22:04;93249.09;;;21.58;48.75
76086;BME280;64791;0.000;0.000;2023-05-16T11:24:33;93244.88;;;21.41;49.46
76086;BME280;64791;0.000;0.000;2023-05-16T11:27:01;93239.72;;;21.36;48.75
76086;BME280;64791;0.000;0.000;2023-05-16T11:29:27;93237.63;;;21.36;48.24
76086;BME280;64791;0.000;0.000;2023-05-16T11:31:53;93242.50;;;21.36;48.99
76086;BME280;64791;0.000;0.000;2023-05-16T11:34:18;93228.88;;;21.77;49.40
76086;BME280;64791;0.000;0.000;2023-05-16T11:36:44;93221.56;;;22.21;47.09
76086;BME280;64791;0.000;0.000;2023-05-16T11:39:10;93242.22;;;22.45;47.64
76086;BME280;64791;0.000;0.000;2023-05-16T11:41:37;93244.09;;;22.93;45.43
76086;BME280;64791;0.000;0.000;2023-05-16T11:44:03;93242.28;;;23.02;45.68
76086;BME280;64791;0.000;0.000;2023-05-16T11:46:30;93247.81;;;22.80;46.29
76086;BME280;64791;0.000;0.000;2023-05-16T11:48:56;93239.25;;;22.96;45.22
76086;BME280;64791;0.000;0.000;2023-05-16T11:51:22;93242.34;;;22.67;45.74
76086;BME280;64791;0.000;0.000;2023-05-16T11:53:48;93226.31;;;22.51;45.41
76086;BME280;64791;0.000;0.000;2023-05-16T11:56:17;93226.22;;;22.49;45.82
76086;BME280;64791;0.000;0.000;2023-05-16T11:58:43;93242.03;;;22.23;46.24
76086;BME280;64791;0.000;0.000;2023-05-16T12:01:10;93231.75;;;22.30;46.33
76086;BME280;64791;0.000;0.000;2023-05-16T12:03:35;93219.22;;;22.15;46.90
76086;BME280;64791;0.000;0.000;2023-05-16T12:06:03;93229.19;;;22.18;46.67
76086;BME280;64791;0.000;0.000;2023-05-16T12:08:29;93228.69;;;22.24;45.92
76086;BME280;64791;0.000;0.000;2023-05-16T12:10:55;93211.03;;;22.21;45.71
76086;BME280;64791;0.000;0.000;2023-05-16T12:13:21;93211.69;;;22.55;45.89
76086;BME280;64791;0.000;0.000;2023-05-16T12:15:48;93211.00;;;22.92;46.05
76086;BME280;64791;0.000;0.000;2023-05-16T12:18:14;93210.75;;;23.23;45.59
76086;BME280;64791;0.000;0.000;2023-05-16T12:20:41;93198.84;;;23.05;45.12
76086;BME280;64791;0.000;0.000;2023-05-16T12:23:10;93214.34;;;23.25;44.67
76086;BME280;64791;0.000;0.000;2023-05-16T12:25:37;93209.00;;;23.33;45.11
76086;BME280;64791;0.000;0.000;2023-05-16T12:28:08;93205.97;;;23.67;44.50
76086;BME280;64791;0.000;0.000;2023-05-16T12:30:38;93196.84;;;23.88;42.53
76086;BME280;64791;0.000;0.000;2023-05-16T12:33:08;93200.47;;;23.71;42.68
76086;BME280;64791;0.000;0.000;2023-05-16T12:35:36;93215.16;;;23.28;42.74
76086;BME280;64791;0.000;0.000;2023-05-16T12:38:03;93210.09;;;23.05;44.26
76086;BME280;64791;0.000;0.000;2023-05-16T12:40:29;93203.63;;;23.02;43.53
76086;BME280;64791;0.000;0.000;2023-05-16T12:42:55;93204.97;;;22.82;44.82
76086;BME280;64791;0.000;0.000;2023-05-16T12:45:21;93202.00;;;22.78;44.64
76086;BME280;64791;0.000;0.000;2023-05-16T12:47:48;93217.22;;;22.71;45.06
76086;BME280;64791;0.000;0.000;2023-05-16T12:50:14;93225.03;;;22.54;45.56
76086;BME280;64791;0.000;0.000;2023-05-16T12:52:57;93221.25;;;22.48;45.15
76086;BME280;64791;0.000;0.000;2023-05-16T12:55:23;93219.88;;;22.31;44.85
76086;BME280;64791;0.000;0.000;2023-05-16T12:57:50;93224.75;;;21.96;45.90
76086;BME280;64791;0.000;0.000;2023-05-16T13:00:17;93237.81;;;21.89;45.56
76086;BME280;64791;0.000;0.000;2023-05-16T13:02:43;93228.28;;;21.47;45.97
76086;BME280;64791;0.000;0.000;2023-05-16T13:05:10;93222.94;;;21.38;47.13
76086;BME280;64791;0.000;0.000;2023-05-16T13:07:36;93224.06;;;21.31;47.23
76086;BME280;64791;0.000;0.000;2023-05-16T13:10:02;93221.06;;;21.42;46.56
76086;BME280;64791;0.000;0.000;2023-05-16T13:12:28;93208.81;;;21.67;46.35
76086;BME280;64791;0.000;0.000;2023-05-16T13:14:54;93206.38;;;22.10;44.39
76086;BME280;64791;0.000;0.000;2023-05-16T13:17:20;93215.72;;;21.81;44.77
76086;BME280;64791;0.000;0.000;2023-05-16T13:19:48;93217.56;;;21.75;45.14
76086;BME280;64791;0.000;0.000;2023-05-16T13:22:13;93219.59;;;21.57;45.77
76086;BME280;64791;0.000;0.000;2023-05-16T13:24:39;93223.44;;;21.32;46.46
76086;BME280;64791;0.000;0.000;2023-05-16T13:27:06;93213.75;;;21.35;46.50
76086;BME280;64791;0.000;0.000;2023-05-16T13:29:31;93198.28;;;21.19;47.62